Time;durP1;ratioP1;P1;durP2;ratioP2;P2;SDS_P1;SDS_P2;PMS_P1;PMS_P2;Temp;Humidity;BMP_temperature;BMP_pressure;BME280_temperature;BME280_humidity;BME280_pressure;Samples;Min_cycle;Max_cycle;Signal;HPM_P1;HPM_P2
2023/05/20 04:50:54;;;;;;;9.55;1.95;;;15.60;67.00;;;;;;5426615;24;20083;-65
2023/05/20 04:53:20;;;;;;;6.05;2.10;;;15.60;67.40;;;;;;4741470;30;20052;-64
2023/05/20 04:55:48;;;;;;;8.82;2.47;;;15.60;67.40;;;;;;4754053;30;20070;-71
2023/05/20 04:58:16;;;;;;;9.98;2.05;;;15.70;67.70;;;;;;4754209;30;20135;-69
2023/05/20 05:00:45;;;;;;;15.10;2.28;;;15.70;68.00;;;;;;4753852;30;20052;-65
2023/05/20 05:03:11;;;;;;;8.40;1.90;;;15.70;67.70;;;;;;4738936;30;20049;-66
2023/05/20 05:05:41;;;;;;;13.10;2.35;;;15.80;67.60;;;;;;4736424;30;20440;-66
2023/05/20 05:08:07;;;;;;;12.13;2.60;;;15.90;67.70;;;;;;4736644;30;20060;-66
2023/05/20 05:10:34;;;;;;;12.18;2.83;;;15.90;67.30;;;;;;4736721;30;20118;-65
2023/05/20 05:13:00;;;;;;;15.27;2.60;;;16.00;66.80;;;;;;4749950;30;20052;-66
2023/05/20 05:15:26;;;;;;;20.63;3.05;;;16.00;67.50;;;;;;4764163;30;20201;-65
2023/05/20 05:17:52;;;;;;;13.13;2.60;;;16.00;67.70;;;;;;4771765;30;20055;-65
2023/05/20 05:20:18;;;;;;;22.00;4.07;;;16.10;68.10;;;;;;4771653;30;20131;-69
2023/05/20 05:22:45;;;;;;;23.05;3.30;;;16.10;68.30;;;;;;4749487;30;20140;-64
2023/05/20 05:25:11;;;;;;;31.23;3.22;;;16.10;68.80;;;;;;4759383;30;20119;-65
2023/05/20 05:27:37;;;;;;;19.48;4.10;;;16.10;69.00;;;;;;4751556;30;20056;-65
2023/05/20 05:30:05;;;;;;;23.45;4.05;;;16.20;69.20;;;;;;4769363;30;20067;-65
2023/05/20 05:32:31;;;;;;;19.45;3.28;;;16.20;69.40;;;;;;4760402;30;20421;-65
2023/05/20 05:34:56;;;;;;;15.48;3.13;;;16.20;69.70;;;;;;4753727;30;20135;-65
2023/05/20 05:37:22;;;;;;;22.27;3.90;;;16.20;70.00;;;;;;4750613;30;20132;-65
2023/05/20 05:39:48;;;;;;;24.10;4.20;;;16.20;70.20;;;;;;4753527;30;20044;-64
2023/05/20 05:42:14;;;;;;;18.92;3.90;;;16.20;70.60;;;;;;4750195;30;20056;-65
2023/05/20 05:44:40;;;;;;;27.95;4.38;;;16.30;70.90;;;;;;4753432;30;20060;-66
2023/05/20 05:47:06;;;;;;;29.65;4.35;;;16.30;71.00;;;;;;4744992;30;20138;-66
2023/05/20 05:49:32;;;;;;;29.75;4.75;;;16.30;71.10;;;;;;4752280;30;20049;-66
2023/05/20 05:51:58;;;;;;;26.55;3.88;;;16.30;71.30;;;;;;4760396;30;20047;-66
2023/05/20 05:54:24;;;;;;;26.33;4.00;;;16.30;71.00;;;;;;4771458;30;20082;-67
2023/05/20 05:56:53;;;;;;;21.52;3.80;;;16.30;70.80;;;;;;4774839;30;20421;-66
2023/05/20 05:59:19;;;;;;;22.63;4.47;;;16.30;71.00;;;;;;4773435;30;20052;-66
2023/05/20 06:01:45;;;;;;;17.60;3.58;;;16.30;71.10;;;;;;4774587;30;20052;-67
2023/05/20 06:04:11;;;;;;;25.42;3.65;;;16.30;71.50;;;;;;4770551;30;20197;-66
2023/05/20 06:06:37;;;;;;;15.98;2.47;;;16.30;72.30;;;;;;4773430;30;20130;-65
2023/05/20 06:09:03;;;;;;;14.57;2.65;;;16.30;70.30;;;;;;4774444;30;20503;-65
2023/05/20 06:11:28;;;;;;;29.85;4.50;;;16.20;68.80;;;;;;4774625;30;20059;-66
2023/05/20 06:13:54;;;;;;;29.83;4.70;;;16.20;68.30;;;;;;4766481;30;20051;-65
2023/05/20 06:16:20;;;;;;;23.80;2.97;;;16.20;69.40;;;;;;4774459;30;20117;-65
2023/05/20 06:18:49;;;;;;;34.10;4.10;;;16.20;70.20;;;;;;4774857;30;20055;-66
2023/05/20 06:21:15;;;;;;;34.70;3.80;;;16.20;70.70;;;;;;4773620;30;20051;-66
2023/05/20 06:23:41;;;;;;;21.08;3.20;;;16.20;70.60;;;;;;4773981;30;20365;-67
2023/05/20 06:26:06;;;;;;;11.77;2.58;;;16.20;70.30;;;;;;4774159;30;20071;-66
2023/05/20 06:28:32;;;;;;;15.57;2.45;;;16.30;70.00;;;;;;4774170;30;20051;-65
2023/05/20 06:30:58;;;;;;;12.38;2.20;;;16.20;69.50;;;;;;4774798;30;20071;-65
2023/05/20 06:33:27;;;;;;;17.38;2.17;;;16.20;69.10;;;;;;4773813;30;20494;-65
2023/05/20 06:35:54;;;;;;;13.52;2.20;;;16.20;68.90;;;;;;4774169;30;20064;-70
2023/05/20 06:38:20;;;;;;;11.88;1.63;;;16.30;68.40;;;;;;4774167;30;20052;-65
2023/05/20 06:40:47;;;;;;;21.13;2.55;;;16.30;68.00;;;;;;4773653;30;20108;-65
2023/05/20 06:43:13;;;;;;;14.02;2.50;;;16.30;67.70;;;;;;4773492;30;20044;-64
2023/05/20 06:45:39;;;;;;;24.23;3.30;;;16.40;67.40;;;;;;4773803;30;20074;-65
2023/05/20 06:48:05;;;;;;;29.05;2.85;;;16.40;67.00;;;;;;4774227;30;20075;-65
2023/05/20 06:50:31;;;;;;;15.52;2.65;;;16.50;67.00;;;;;;4743590;30;20379;-65
2023/05/20 06:52:56;;;;;;;19.83;2.38;;;16.50;67.00;;;;;;4773273;30;20113;-66
2023/05/20 06:55:22;;;;;;;16.92;2.22;;;16.50;66.50;;;;;;4773937;30;20189;-65
2023/05/20 06:57:48;;;;;;;12.18;1.73;;;16.50;66.80;;;;;;4773949;30;20058;-64
2023/05/20 07:00:13;;;;;;;16.70;2.53;;;16.60;66.40;;;;;;4774161;30;20478;-64
2023/05/20 07:02:40;;;;;;;15.50;2.85;;;16.60;66.10;;;;;;4773269;30;20193;-64
2023/05/20 07:05:07;;;;;;;18.60;2.90;;;16.60;66.10;;;;;;4773505;30;20066;-65
2023/05/20 07:07:32;;;;;;;9.30;1.70;;;16.60;66.40;;;;;;4772776;30;20059;-66
2023/05/20 07:09:58;;;;;;;11.45;2.20;;;16.60;66.50;;;;;;4774239;30;20101;-65
2023/05/20 07:12:24;;;;;;;15.48;2.28;;;16.60;66.60;;;;;;4773118;30;20059;-65
2023/05/20 07:14:50;;;;;;;8.02;2.13;;;16.70;66.80;;;;;;4773368;30;20406;-64
2023/05/20 07:17:16;;;;;;;14.73;2.05;;;16.70;66.70;;;;;;4773225;30;20058;-65
2023/05/20 07:19:41;;;;;;;14.60;2.50;;;16.70;66.60;;;;;;4777554;30;20109;-64
2023/05/20 07:22:07;;;;;;;13.07;2.33;;;16.70;66.70;;;;;;4789853;30;20047;-66
2023/05/20 07:24:34;;;;;;;6.63;1.73;;;16.70;66.60;;;;;;4772762;30;20056;-65
2023/05/20 07:27:00;;;;;;;15.18;1.60;;;16.70;66.40;;;;;;4772764;30;20479;-65
2023/05/20 07:29:25;;;;;;;7.82;1.40;;;16.70;66.40;;;;;;4767086;30;20085;-66
2023/05/20 07:31:52;;;;;;;11.77;1.92;;;16.80;66.50;;;;;;4773122;30;20047;-65
2023/05/20 07:34:18;;;;;;;7.60;1.63;;;16.80;66.50;;;;;;4772940;30;20197;-65
2023/05/20 07:36:43;;;;;;;12.60;2.17;;;16.80;66.50;;;;;;4772974;30;20528;-66
2023/05/20 07:39:09;;;;;;;4.70;1.63;;;16.80;66.60;;;;;;4772795;30;20502;-65
2023/05/20 07:41:36;;;;;;;10.10;1.55;;;16.80;66.60;;;;;;4772969;30;20376;-65
2023/05/20 07:44:04;;;;;;;5.70;1.75;;;16.80;66.60;;;;;;4772479;30;20066;-66
2023/05/20 07:46:30;;;;;;;5.95;1.30;;;16.80;66.70;;;;;;4773091;30;20371;-65
2023/05/20 07:48:56;;;;;;;4.72;1.40;;;16.90;66.80;;;;;;4773465;30;20051;-66
2023/05/20 07:51:22;;;;;;;4.20;1.25;;;16.90;66.80;;;;;;4772263;30;20063;-66
2023/05/20 07:53:48;;;;;;;4.78;1.20;;;16.90;66.80;;;;;;4772264;30;20055;-65
2023/05/20 07:56:14;;;;;;;6.35;1.50;;;16.90;66.60;;;;;;4773137;30;20413;-66
2023/05/20 07:58:41;;;;;;;7.95;1.60;;;16.90;66.60;;;;;;4773209;30;20369;-66
2023/05/20 08:01:08;;;;;;;8.27;1.58;;;16.90;66.70;;;;;;4772880;30;20138;-66
2023/05/20 08:03:35;;;;;;;7.88;1.50;;;16.90;66.60;;;;;;4763186;30;20056;-66
2023/05/20 08:06:01;;;;;;;4.78;1.42;;;16.90;66.70;;;;;;4772632;30;20048;-66
2023/05/20 08:08:29;;;;;;;5.53;1.52;;;17.00;66.70;;;;;;4772624;30;20043;-66
2023/05/20 08:10:55;;;;;;;3.72;1.35;;;17.00;66.70;;;;;;4772096;30;20076;-66
2023/05/20 08:13:21;;;;;;;4.63;1.30;;;17.00;66.70;;;;;;4771852;30;20051;-66
2023/05/20 08:15:47;;;;;;;2.90;1.10;;;17.00;66.70;;;;;;4772374;30;20048;-66
2023/05/20 08:18:14;;;;;;;4.72;1.10;;;17.00;66.70;;;;;;4771978;30;20134;-66
2023/05/20 08:20:41;;;;;;;4.72;1.38;;;17.00;66.70;;;;;;4757259;30;20144;-66
2023/05/20 08:23:07;;;;;;;2.67;0.90;;;17.10;66.80;;;;;;4772094;30;20060;-66
2023/05/20 08:25:33;;;;;;;3.75;1.27;;;17.10;66.80;;;;;;4770315;30;20516;-67
2023/05/20 08:28:02;;;;;;;3.50;0.88;;;17.10;66.70;;;;;;4772226;30;20051;-66
2023/05/20 08:30:29;;;;;;;4.85;1.25;;;17.10;66.70;;;;;;4772249;30;20376;-66
2023/05/20 08:32:55;;;;;;;3.72;0.88;;;17.10;66.70;;;;;;4772044;30;20085;-66
2023/05/20 08:35:22;;;;;;;4.00;0.80;;;17.10;66.70;;;;;;4772075;30;20130;-66
2023/05/20 08:37:47;;;;;;;5.85;1.35;;;17.10;66.60;;;;;;4771957;30;20212;-66
2023/05/20 08:40:14;;;;;;;13.38;1.48;;;17.10;66.60;;;;;;4772068;30;20135;-65
2023/05/20 08:42:41;;;;;;;1.92;0.68;;;17.20;66.60;;;;;;4771803;30;20055;-65
2023/05/20 08:45:10;;;;;;;25.20;2.30;;;17.20;66.40;;;;;;4771937;30;20059;-67
2023/05/20 08:47:44;;;;;;;8.38;1.73;;;17.20;66.40;;;;;;4772311;30;20418;-64
2023/05/20 08:50:11;;;;;;;18.38;2.13;;;17.20;66.80;;;;;;4771664;30;20540;-66
2023/05/20 08:52:44;;;;;;;13.02;2.28;;;17.20;66.70;;;;;;4765868;30;20080;-67
2023/05/20 08:55:56;;;;;;;10.05;1.70;;;17.30;67.00;;;;;;4771380;30;20066;-66
2023/05/20 08:58:27;;;;;;;18.42;2.33;;;17.30;66.70;;;;;;4757561;30;20084;-66
2023/05/20 09:00:53;;;;;;;19.02;3.08;;;17.30;66.60;;;;;;4771121;30;20056;-66
2023/05/20 09:03:23;;;;;;;19.27;2.60;;;17.40;66.70;;;;;;4771573;30;20046;-66
2023/05/20 09:05:49;;;;;;;9.77;1.50;;;17.40;66.80;;;;;;4771634;30;20071;-67
2023/05/20 09:08:14;;;;;;;12.65;1.60;;;17.40;66.40;;;;;;4772011;30;20436;-66
2023/05/20 09:10:41;;;;;;;11.80;2.25;;;17.40;66.40;;;;;;4771839;30;20487;-66
2023/05/20 09:13:09;;;;;;;12.73;2.35;;;17.40;66.70;;;;;;4771677;30;20472;-66
2023/05/20 09:15:36;;;;;;;17.58;2.05;;;17.40;66.50;;;;;;4771018;30;20072;-67
2023/05/20 09:18:05;;;;;;;10.60;2.10;;;17.40;66.50;;;;;;4771661;30;20056;-67
2023/05/20 09:20:36;;;;;;;16.67;1.65;;;17.40;66.40;;;;;;4785090;30;20091;-67
2023/05/20 09:23:08;;;;;;;12.95;1.75;;;17.50;66.30;;;;;;4771937;30;20052;-67
2023/05/20 09:25:36;;;;;;;13.32;2.38;;;17.40;66.30;;;;;;4771848;30;20476;-66
2023/05/20 09:28:06;;;;;;;12.57;2.38;;;17.40;66.70;;;;;;4771845;30;20059;-65
2023/05/20 09:30:32;;;;;;;26.27;3.22;;;17.40;67.00;;;;;;4763630;30;20063;-65
2023/05/20 09:33:00;;;;;;;14.32;1.77;;;17.50;66.90;;;;;;4757587;30;20060;-67
2023/05/20 09:35:26;;;;;;;17.73;2.25;;;17.50;66.30;;;;;;4757627;30;20389;-67
2023/05/20 09:37:55;;;;;;;13.57;2.63;;;17.50;66.30;;;;;;4757147;30;20080;-67
2023/05/20 09:40:26;;;;;;;11.02;1.80;;;17.50;66.30;;;;;;4748622;30;20459;-67
2023/05/20 09:42:58;;;;;;;19.75;2.53;;;17.50;66.20;;;;;;4770013;30;20056;-67
2023/05/20 09:45:24;;;;;;;14.32;2.00;;;17.50;66.10;;;;;;4762061;30;20547;-66
2023/05/20 09:47:51;;;;;;;9.63;1.15;;;17.50;65.70;;;;;;4774568;30;20135;-67
2023/05/20 09:50:22;;;;;;;6.43;1.40;;;17.50;65.50;;;;;;4774630;30;20056;-67
2023/05/20 09:52:48;;;;;;;10.27;1.55;;;17.50;65.50;;;;;;4773399;30;20075;-67
2023/05/20 09:55:16;;;;;;;6.10;1.75;;;17.40;65.30;;;;;;4774578;30;20058;-67
2023/05/20 09:57:42;;;;;;;12.85;2.05;;;17.40;65.30;;;;;;4744408;30;20138;-66
2023/05/20 10:00:09;;;;;;;10.65;1.40;;;17.40;65.30;;;;;;4774565;30;20044;-66
2023/05/20 10:02:35;;;;;;;10.50;1.25;;;17.40;65.40;;;;;;4774609;30;20063;-67
2023/05/20 10:05:06;;;;;;;7.22;1.40;;;17.40;65.50;;;;;;4773193;30;20460;-67
2023/05/20 10:07:59;;;;;;;7.45;1.40;;;17.50;65.40;;;;;;4774023;30;20546;-66
2023/05/20 10:10:53;;;;;;;8.23;2.10;;;17.50;65.40;;;;;;4773034;30;20055;-66
2023/05/20 10:13:44;;;;;;;6.38;1.25;;;17.50;65.50;;;;;;4774207;30;20052;-66
2023/05/20 10:16:42;;;;;;;6.15;1.38;;;17.50;65.40;;;;;;4756090;30;20145;-67
2023/05/20 10:19:25;;;;;;;9.23;1.35;;;17.50;65.40;;;;;;4756531;30;20056;-67
2023/05/20 10:22:05;;;;;;;5.47;1.10;;;17.50;65.40;;;;;;4757231;30;20063;-67
2023/05/20 10:24:40;;;;;;;7.35;1.30;;;17.50;65.40;;;;;;4762712;30;20055;-66
2023/05/20 10:27:14;;;;;;;8.85;1.73;;;17.50;65.40;;;;;;4758716;30;20060;-66
2023/05/20 10:29:50;;;;;;;9.10;1.38;;;17.50;65.50;;;;;;4774232;30;20048;-66
2023/05/20 10:32:31;;;;;;;6.78;1.65;;;17.50;65.40;;;;;;4773454;30;20492;-66
2023/05/20 10:35:08;;;;;;;5.93;1.20;;;17.50;65.40;;;;;;4773712;30;20375;-66
2023/05/20 10:37:50;;;;;;;8.18;1.27;;;17.50;65.40;;;;;;4774249;30;20464;-67
2023/05/20 10:40:18;;;;;;;6.47;1.48;;;17.50;65.40;;;;;;4774015;30;20048;-67
2023/05/20 10:42:45;;;;;;;5.68;1.30;;;17.50;65.40;;;;;;4773855;30;20051;-67
2023/05/20 10:45:11;;;;;;;7.93;1.35;;;17.50;65.50;;;;;;4773364;30;20518;-67
2023/05/20 10:47:41;;;;;;;6.68;1.23;;;17.50;65.50;;;;;;4773229;30;20062;-67
2023/05/20 10:50:07;;;;;;;3.92;0.90;;;17.50;65.50;;;;;;4773833;30;20091;-66
2023/05/20 10:52:35;;;;;;;6.45;1.40;;;17.50;65.50;;;;;;4773476;30;20064;-70
2023/05/20 10:55:03;;;;;;;21.95;3.22;;;17.50;65.70;;;;;;4773599;30;20367;-65
2023/05/20 10:57:30;;;;;;;8.68;1.67;;;17.50;66.20;;;;;;4773386;30;20055;-65
2023/05/20 10:59:56;;;;;;;19.48;2.38;;;17.60;65.80;;;;;;4773946;30;20125;-66
2023/05/20 11:02:25;;;;;;;11.48;2.03;;;17.60;65.60;;;;;;4773808;30;20056;-67
2023/05/20 11:04:58;;;;;;;9.85;1.70;;;17.60;65.70;;;;;;4773421;30;20754;-70
2023/05/20 11:07:30;;;;;;;28.20;3.17;;;17.60;65.90;;;;;;4773750;30;20183;-68
2023/05/20 11:09:57;;;;;;;12.47;2.70;;;17.60;66.30;;;;;;4773381;30;20317;-68
2023/05/20 11:12:24;;;;;;;28.17;4.35;;;17.60;66.30;;;;;;4773479;30;20602;-68
2023/05/20 11:14:50;;;;;;;20.40;3.40;;;17.60;66.60;;;;;;4772937;30;20391;-68
2023/05/20 11:17:17;;;;;;;15.02;2.42;;;17.50;66.70;;;;;;4773755;30;20056;-68
2023/05/20 11:19:44;;;;;;;11.50;2.65;;;17.50;66.90;;;;;;4773230;30;20072;-69
2023/05/20 11:22:09;;;;;;;20.65;2.60;;;17.60;66.70;;;;;;4757727;30;20055;-69
2023/05/20 11:24:36;;;;;;;17.70;2.83;;;17.60;66.90;;;;;;4773185;30;20043;-68
2023/05/20 11:27:02;;;;;;;19.40;2.35;;;17.60;66.90;;;;;;4773140;30;20087;-68
2023/05/20 11:29:30;;;;;;;23.80;3.65;;;17.60;66.60;;;;;;4772783;30;20087;-68
2023/05/20 11:31:59;;;;;;;15.07;3.13;;;17.60;66.90;;;;;;4772985;30;20124;-67
2023/05/20 11:34:25;;;;;;;25.98;3.30;;;17.70;67.10;;;;;;4772768;30;20448;-67
2023/05/20 11:36:58;;;;;;;31.58;4.32;;;17.70;67.20;;;;;;4758960;30;20048;-67
2023/05/20 11:39:25;;;;;;;19.30;3.88;;;17.60;67.40;;;;;;4762702;30;20063;-67
2023/05/20 11:41:51;;;;;;;25.65;3.55;;;17.60;67.30;;;;;;4772895;30;20051;-67
2023/05/20 11:44:19;;;;;;;15.15;3.53;;;17.60;67.30;;;;;;4772996;30;20371;-67
2023/05/20 11:46:46;;;;;;;23.48;3.58;;;17.60;67.20;;;;;;4772559;30;20138;-67
2023/05/20 11:49:13;;;;;;;18.33;3.35;;;17.60;67.40;;;;;;4771855;30;20068;-69
2023/05/20 11:51:39;;;;;;;17.58;2.45;;;17.60;67.60;;;;;;4771506;30;20084;-68
2023/05/20 11:54:06;;;;;;;12.00;2.45;;;17.50;67.50;;;;;;4771988;30;20055;-66
2023/05/20 11:56:35;;;;;;;19.65;3.13;;;17.60;67.40;;;;;;4772702;30;20100;-68
2023/05/20 11:59:01;;;;;;;14.00;2.78;;;17.60;67.30;;;;;;4772437;30;20052;-68
2023/05/20 12:01:42;;;;;;;17.88;2.20;;;17.60;67.30;;;;;;4772675;30;20446;-68
2023/05/20 12:04:08;;;;;;;12.18;2.83;;;17.60;67.30;;;;;;4772020;30;20059;-68
2023/05/20 12:06:38;;;;;;;13.27;2.50;;;17.50;67.40;;;;;;4772797;30;20094;-68
2023/05/20 12:09:07;;;;;;;9.73;2.25;;;17.50;67.50;;;;;;4772809;30;20059;-68
2023/05/20 12:11:39;;;;;;;15.70;2.40;;;17.50;67.50;;;;;;4772527;30;20072;-67
2023/05/20 12:14:06;;;;;;;11.65;2.58;;;17.50;67.50;;;;;;4772294;30;20044;-67
2023/05/20 12:16:33;;;;;;;8.75;2.08;;;17.50;67.60;;;;;;4772223;30;20460;-67
2023/05/20 12:18:59;;;;;;;8.10;1.48;;;17.50;67.60;;;;;;4772692;30;20193;-68
2023/05/20 12:21:25;;;;;;;8.38;1.75;;;17.50;67.60;;;;;;4756516;30;20056;-67
2023/05/20 12:23:56;;;;;;;11.27;2.20;;;17.50;67.60;;;;;;4771460;30;20095;-68
2023/05/20 12:26:23;;;;;;;16.70;2.42;;;17.50;67.70;;;;;;4772100;30;20076;-66
2023/05/20 12:28:49;;;;;;;19.88;2.20;;;17.50;67.70;;;;;;4772264;30;20059;-67
2023/05/20 12:31:15;;;;;;;23.90;3.47;;;17.50;67.60;;;;;;4772620;30;20070;-67
2023/05/20 12:33:41;;;;;;;14.50;2.40;;;17.50;67.70;;;;;;4786211;30;20056;-67
2023/05/20 12:36:07;;;;;;;10.82;1.90;;;17.50;67.80;;;;;;4772035;30;20051;-67
2023/05/20 12:38:33;;;;;;;12.88;2.72;;;17.50;68.00;;;;;;4771430;30;20098;-66
2023/05/20 12:40:59;;;;;;;13.05;3.42;;;17.60;68.50;;;;;;4772175;30;20091;-67
2023/05/20 12:43:25;;;;;;;10.65;2.10;;;17.60;68.70;;;;;;4772094;30;20479;-68
2023/05/20 12:45:51;;;;;;;13.30;2.00;;;17.60;68.50;;;;;;4770270;30;20062;-67
2023/05/20 12:48:17;;;;;;;11.85;2.38;;;17.60;68.50;;;;;;4771711;30;20431;-67
2023/05/20 12:50:43;;;;;;;13.48;2.30;;;17.60;68.50;;;;;;4771836;30;20071;-66
2023/05/20 12:53:08;;;;;;;8.93;1.98;;;17.60;68.50;;;;;;4771817;30;20133;-66
2023/05/20 12:55:34;;;;;;;10.90;2.05;;;17.60;68.50;;;;;;4772619;30;20098;-67
2023/05/20 12:58:00;;;;;;;8.57;1.88;;;17.60;68.60;;;;;;4771441;30;20056;-67
2023/05/20 13:00:26;;;;;;;9.18;2.08;;;17.60;68.60;;;;;;4755950;30;20067;-67
2023/05/20 13:02:51;;;;;;;6.75;1.58;;;17.60;68.60;;;;;;4771694;30;20056;-67
2023/05/20 13:05:17;;;;;;;6.57;1.58;;;17.60;68.60;;;;;;4773506;30;20048;-67
2023/05/20 13:07:43;;;;;;;6.88;1.83;;;17.60;68.70;;;;;;4775488;30;20123;-67
2023/05/20 13:10:10;;;;;;;7.47;2.45;;;17.60;68.70;;;;;;4774278;30;20116;-67
2023/05/20 13:12:36;;;;;;;6.28;1.75;;;17.60;68.80;;;;;;4767346;30;20052;-67
2023/05/20 13:15:03;;;;;;;6.70;1.75;;;17.60;68.80;;;;;;4762536;30;20478;-65
2023/05/20 13:17:29;;;;;;;9.38;1.75;;;17.60;68.90;;;;;;4773890;30;20047;-66
2023/05/20 13:19:55;;;;;;;6.25;1.85;;;17.60;68.60;;;;;;4769512;30;20119;-65
2023/05/20 13:22:21;;;;;;;4.18;1.60;;;17.60;68.20;;;;;;4774946;30;20134;-65
2023/05/20 13:24:48;;;;;;;15.30;2.10;;;17.70;67.90;;;;;;4775252;30;20056;-66
2023/05/20 13:27:14;;;;;;;7.93;1.48;;;17.70;68.00;;;;;;4775726;30;20067;-67
2023/05/20 13:29:40;;;;;;;8.13;1.33;;;17.70;67.80;;;;;;4775225;30;20062;-66
2023/05/20 13:32:06;;;;;;;6.50;1.30;;;17.70;67.60;;;;;;4774789;30;20067;-66
2023/05/20 13:34:32;;;;;;;7.95;1.48;;;17.80;67.40;;;;;;4774790;30;20055;-67
2023/05/20 13:36:58;;;;;;;12.10;2.28;;;17.80;67.30;;;;;;4775314;30;20438;-69
2023/05/20 13:39:24;;;;;;;13.30;2.42;;;17.80;67.40;;;;;;4775254;30;20056;-68
2023/05/20 13:41:49;;;;;;;10.05;2.38;;;17.80;67.60;;;;;;4775181;30;20063;-68
2023/05/20 13:44:15;;;;;;;7.55;2.17;;;17.70;67.70;;;;;;4774745;30;20055;-67
2023/05/20 13:46:41;;;;;;;5.57;1.60;;;17.80;67.70;;;;;;4775216;30;20056;-67
2023/05/20 13:49:07;;;;;;;18.38;3.65;;;17.80;67.60;;;;;;4774909;30;20464;-67
2023/05/20 13:51:32;;;;;;;8.20;1.88;;;17.80;67.60;;;;;;4774516;30;20063;-68
2023/05/20 13:53:58;;;;;;;33.45;10.10;;;17.90;67.70;;;;;;4774320;30;20052;-66
2023/05/20 13:56:24;;;;;;;6.35;2.72;;;17.80;68.10;;;;;;4761840;30;20140;-68
2023/05/20 13:58:50;;;;;;;6.45;2.53;;;17.90;67.90;;;;;;4773785;30;20490;-67
2023/05/20 14:01:15;;;;;;;16.70;5.05;;;17.90;67.70;;;;;;4773937;30;20051;-67
2023/05/20 14:03:41;;;;;;;9.63;3.42;;;17.80;67.80;;;;;;4773816;30;20074;-67
2023/05/20 14:06:07;;;;;;;10.35;2.30;;;17.90;67.80;;;;;;4774195;30;20456;-68
2023/05/20 14:08:33;;;;;;;6.63;1.70;;;17.90;67.70;;;;;;4774538;30;20048;-67
2023/05/20 14:10:59;;;;;;;4.00;1.70;;;17.90;67.50;;;;;;4774503;30;20128;-67
2023/05/20 14:13:25;;;;;;;14.35;2.15;;;18.00;67.30;;;;;;4773986;30;20139;-66
2023/05/20 14:15:51;;;;;;;7.65;2.08;;;18.00;67.40;;;;;;4773771;30;20079;-67
2023/05/20 14:18:17;;;;;;;5.68;1.42;;;18.00;67.60;;;;;;4774160;30;20059;-66
2023/05/20 14:20:44;;;;;;;6.78;1.85;;;18.00;67.40;;;;;;4774164;30;20479;-66
2023/05/20 14:23:10;;;;;;;7.10;1.88;;;18.00;67.20;;;;;;4774381;30;20131;-66
2023/05/20 14:25:36;;;;;;;7.20;2.15;;;18.00;67.20;;;;;;4773993;30;20212;-65
2023/05/20 14:28:02;;;;;;;6.78;1.15;;;18.10;67.20;;;;;;4774859;30;20117;-66
2023/05/20 14:30:28;;;;;;;8.32;2.13;;;18.10;67.10;;;;;;4773724;30;20099;-67
2023/05/20 14:32:54;;;;;;;11.35;1.63;;;18.10;67.40;;;;;;4774377;30;20053;-67
2023/05/20 14:35:20;;;;;;;4.38;1.30;;;18.10;67.40;;;;;;4773497;30;20347;-67
2023/05/20 14:37:45;;;;;;;4.55;1.10;;;18.10;67.40;;;;;;4774447;30;20063;-67
2023/05/20 14:40:12;;;;;;;9.00;1.67;;;18.10;67.10;;;;;;4774077;30;20058;-67
2023/05/20 14:42:38;;;;;;;7.32;1.55;;;18.10;66.90;;;;;;4773778;30;20059;-67
2023/05/20 14:45:05;;;;;;;8.48;1.08;;;18.10;66.50;;;;;;4773904;30;20062;-66
2023/05/20 14:47:30;;;;;;;3.28;1.23;;;18.10;66.60;;;;;;4772587;30;20217;-66
2023/05/20 14:49:56;;;;;;;3.78;1.55;;;18.10;66.50;;;;;;4772698;30;20142;-67
2023/05/20 14:52:22;;;;;;;3.85;1.10;;;18.10;66.50;;;;;;4773640;30;20082;-67
2023/05/20 14:54:48;;;;;;;2.85;1.27;;;18.10;66.40;;;;;;4772336;30;20052;-66
2023/05/20 14:57:14;;;;;;;3.03;1.40;;;18.10;66.30;;;;;;4774506;30;20067;-75
2023/05/20 14:59:41;;;;;;;6.15;1.48;;;18.20;66.30;;;;;;4773578;30;20079;-65
2023/05/20 15:02:07;;;;;;;7.65;2.03;;;18.20;66.30;;;;;;4773571;30;20138;-65
2023/05/20 15:04:33;;;;;;;15.88;2.08;;;18.10;66.30;;;;;;4773235;30;20413;-65
2023/05/20 15:06:59;;;;;;;14.93;2.40;;;18.10;66.30;;;;;;4773490;30;20051;-66
2023/05/20 15:09:25;;;;;;;7.07;1.40;;;18.10;66.60;;;;;;4773581;30;20067;-65
2023/05/20 15:11:51;;;;;;;6.00;1.75;;;18.10;66.50;;;;;;4773112;30;20047;-66
2023/05/20 15:14:17;;;;;;;7.15;1.55;;;18.10;66.60;;;;;;4773040;30;20056;-66
2023/05/20 15:16:43;;;;;;;7.43;1.40;;;18.10;66.90;;;;;;4772310;30;20066;-66
2023/05/20 15:19:09;;;;;;;6.18;2.08;;;18.00;67.00;;;;;;4772444;30;20064;-66
2023/05/20 15:21:36;;;;;;;4.45;1.00;;;18.00;67.20;;;;;;4773411;30;20133;-67
2023/05/20 15:24:02;;;;;;;9.73;1.50;;;18.00;67.40;;;;;;4773222;30;20044;-67
2023/05/20 15:26:30;;;;;;;6.45;1.48;;;18.00;67.60;;;;;;4772508;30;20125;-70
2023/05/20 15:28:56;;;;;;;7.15;1.60;;;18.00;67.80;;;;;;4772495;30;20093;-68
2023/05/20 15:31:22;;;;;;;10.13;1.85;;;18.00;67.80;;;;;;4772391;30;20469;-66
2023/05/20 15:33:48;;;;;;;18.60;3.28;;;18.00;67.90;;;;;;4773136;30;20087;-67
2023/05/20 15:36:14;;;;;;;12.15;1.90;;;17.90;68.10;;;;;;4773006;30;20047;-66
2023/05/20 15:38:39;;;;;;;10.30;1.77;;;17.90;68.20;;;;;;4772707;30;20134;-67
2023/05/20 15:41:06;;;;;;;10.15;1.88;;;18.00;68.40;;;;;;4773207;30;20051;-66
2023/05/20 15:43:32;;;;;;;7.82;1.67;;;18.00;68.50;;;;;;4772932;30;20067;-67
2023/05/20 15:45:59;;;;;;;6.30;2.05;;;17.90;68.60;;;;;;4773105;30;20052;-67
2023/05/20 15:48:25;;;;;;;13.63;2.05;;;17.90;68.70;;;;;;4772821;30;20458;-67
2023/05/20 15:50:51;;;;;;;15.68;2.65;;;17.90;69.20;;;;;;4772350;30;20051;-69
2023/05/20 15:53:17;;;;;;;10.68;1.77;;;17.90;69.30;;;;;;4774197;30;20059;-66
2023/05/20 15:55:42;;;;;;;14.30;2.20;;;17.90;69.60;;;;;;4790132;30;20059;-67
2023/05/20 15:58:08;;;;;;;5.25;1.35;;;18.00;69.90;;;;;;4783324;30;20264;-67
2023/05/20 16:00:37;;;;;;;8.93;1.73;;;18.00;70.20;;;;;;4782330;30;20056;-67
2023/05/20 16:03:03;;;;;;;9.40;1.63;;;18.00;70.60;;;;;;4790310;30;20066;-67
2023/05/20 16:05:28;;;;;;;9.75;1.90;;;18.00;71.30;;;;;;4790559;30;20055;-67
2023/05/20 16:07:55;;;;;;;12.43;2.28;;;18.10;72.10;;;;;;4774295;30;20471;-67
2023/05/20 16:10:21;;;;;;;6.90;2.00;;;18.10;72.60;;;;;;4790300;30;20055;-67
2023/05/20 16:12:47;;;;;;;12.18;2.13;;;18.10;72.90;;;;;;4790234;30;20452;-68
2023/05/20 16:15:13;;;;;;;8.95;1.65;;;18.20;73.50;;;;;;4790654;30;20055;-67
2023/05/20 16:17:39;;;;;;;8.10;2.00;;;18.20;73.70;;;;;;4790264;30;20079;-68
2023/05/20 16:20:05;;;;;;;5.97;1.85;;;18.20;73.80;;;;;;4787109;30;20059;-69
2023/05/20 16:22:34;;;;;;;9.30;2.10;;;18.20;73.80;;;;;;4790434;30;20059;-67
2023/05/20 16:25:01;;;;;;;8.32;1.77;;;18.20;74.00;;;;;;4789731;30;20531;-67
2023/05/20 16:27:27;;;;;;;6.65;1.35;;;18.30;73.80;;;;;;4789398;30;20533;-67
2023/05/20 16:29:53;;;;;;;11.00;2.17;;;18.30;73.40;;;;;;4774217;30;20043;-66
2023/05/20 16:32:20;;;;;;;11.30;2.20;;;18.30;73.20;;;;;;4790042;30;20524;-67
2023/05/20 16:34:47;;;;;;;7.93;1.80;;;18.30;73.20;;;;;;4771128;30;20485;-69
2023/05/20 16:37:13;;;;;;;8.02;1.88;;;18.30;73.50;;;;;;4776345;30;20056;-70
2023/05/20 16:39:39;;;;;;;15.02;2.38;;;18.30;73.40;;;;;;4772107;30;20048;-69
2023/05/20 16:42:07;;;;;;;9.52;1.92;;;18.30;73.30;;;;;;4771964;30;20156;-69
2023/05/20 16:44:37;;;;;;;11.23;2.28;;;18.40;73.40;;;;;;4781328;30;20054;-69
2023/05/20 16:47:04;;;;;;;12.15;1.80;;;18.40;73.30;;;;;;4795935;29;20139;-69
2023/05/20 16:49:30;;;;;;;12.77;2.03;;;18.40;73.40;;;;;;4788840;30;20475;-68
2023/05/20 16:51:56;;;;;;;16.83;2.80;;;18.40;73.90;;;;;;4773931;30;20171;-68
2023/05/20 16:54:22;;;;;;;15.50;2.42;;;18.40;73.90;;;;;;4789334;30;20091;-69
2023/05/20 16:56:48;;;;;;;12.13;2.65;;;18.50;73.80;;;;;;4789772;30;20067;-67
2023/05/20 16:59:15;;;;;;;22.92;3.10;;;18.50;73.90;;;;;;4789215;30;20056;-69
2023/05/20 17:01:42;;;;;;;14.50;2.55;;;18.50;74.00;;;;;;4789743;30;20055;-68
2023/05/20 17:04:08;;;;;;;11.50;2.50;;;18.60;74.00;;;;;;4789322;30;20048;-67
2023/05/20 17:06:33;;;;;;;21.10;3.75;;;18.60;74.20;;;;;;4773677;30;20051;-68
2023/05/20 17:09:02;;;;;;;22.30;4.00;;;18.60;74.30;;;;;;4789356;30;20134;-68
2023/05/20 17:11:28;;;;;;;28.40;3.90;;;18.70;74.50;;;;;;4789072;30;20055;-68
2023/05/20 17:13:53;;;;;;;16.27;3.03;;;18.70;74.40;;;;;;4784471;30;20055;-68
2023/05/20 17:16:19;;;;;;;16.52;2.97;;;18.70;73.30;;;;;;4787203;30;20456;-68
2023/05/20 17:18:47;;;;;;;13.48;2.17;;;18.70;72.50;;;;;;4789377;30;20047;-67
2023/05/20 17:21:13;;;;;;;15.95;2.72;;;18.70;72.40;;;;;;4789205;30;20375;-68
2023/05/20 17:23:39;;;;;;;13.60;2.50;;;18.70;72.50;;;;;;4789446;30;20051;-69
2023/05/20 17:26:05;;;;;;;15.98;2.38;;;18.70;72.60;;;;;;4789056;30;20504;-69
2023/05/20 17:28:31;;;;;;;17.55;3.25;;;18.70;72.60;;;;;;4789420;30;20482;-69
2023/05/20 17:30:57;;;;;;;15.15;2.97;;;18.70;72.50;;;;;;4789262;30;20051;-68